Portada
METAR-TAF:

METAR-TAF

Aeropuertos :

Trollhättan-Vänersborg, Suecia

latitud: 58-19N, longitud: 012-21E, altitud: 41 m

Observación

El informe se hizo hace 5 minutos, a las 22:20 UTC
Viento 5 kt del sur-suroeste
Temperatura 3°C
Humedad 87%
Presión 1013 hPa
Visibilidad 10 km o más

METAR: ESGT 312220Z AUTO 20005KT 9999 NCD 03/01 Q1013

Hora: 00:25 (22:25 UTC)

Pronóstico

El informe se hizo hace 10 horas y 55 minutos, a las 11:30 UTC
Pronóstico válido del 31 a las 12 UTC al 31 a las 14 UTC
Viento 17 kt del suroeste
Visibilidad 10 km o más
Nubes dispersas a una altura de 3000 ft
Temporalmente
del 31 a las 12 UTC al 31 a las 14 UTC
Viento 17 kt del oeste-suroeste con ráfagas de 27 kt

TAF: ESGT 311130Z 3112/3114 23017KT 9999 SCT030 TEMPO 3112/3114 24017G27KT

Observaciones y pronósticos meteorológicos de más de 4000 aeropuertos (mensajes METAR y TAF).

Los puntos amarillos y rojos representan las estaciones disponibles.

Ponga el ratón en el punto deseado para ver el nombre de la estación.

Haga clic para ver las observaciones y los pronósticos meteorológicos.

Para cambiar el mapa : haga clic en los botones verdes con una cruz de color negro para hacer un zoom, en el botón verde con un guión para alejar o en las flechas verdes para mapas adyacentes.


METAR-TAF: